sensor_id;sensor_type;location;lat;lon;timestamp;pressure;altitude;pressure_sealevel;temperature;humidity
9764;BME280;4921;43.214;27.936;2022-07-10T00:00:47;100260.00;;;24.44;58.39
9764;BME280;4921;43.214;27.936;2022-07-10T00:03:14;100254.03;;;24.42;58.04
9764;BME280;4921;43.214;27.936;2022-07-10T00:05:41;100257.97;;;24.39;58.07
9764;BME280;4921;43.214;27.936;2022-07-10T00:08:10;100256.94;;;24.40;58.29
9764;BME280;4921;43.214;27.936;2022-07-10T00:10:37;100249.00;;;24.27;57.89
9764;BME280;4921;43.214;27.936;2022-07-10T00:13:04;100246.34;;;24.20;57.87
9764;BME280;4921;43.214;27.936;2022-07-10T00:15:31;100244.31;;;24.16;57.51
9764;BME280;4921;43.214;27.936;2022-07-10T00:17:58;100248.22;;;24.20;56.96
9764;BME280;4921;43.214;27.936;2022-07-10T00:20:26;100246.88;;;24.11;56.94
9764;BME280;4921;43.214;27.936;2022-07-10T00:22:53;100242.75;;;24.08;56.78
9764;BME280;4921;43.214;27.936;2022-07-10T00:25:21;100247.53;;;24.00;56.76
9764;BME280;4921;43.214;27.936;2022-07-10T00:27:48;100239.94;;;23.90;56.93
9764;BME280;4921;43.214;27.936;2022-07-10T00:30:15;100242.34;;;23.98;56.95
9764;BME280;4921;43.214;27.936;2022-07-10T00:32:42;100244.84;;;24.00;57.64
9764;BME280;4921;43.214;27.936;2022-07-10T00:35:09;100233.28;;;23.99;57.02
9764;BME280;4921;43.214;27.936;2022-07-10T00:37:36;100227.44;;;24.02;57.26
9764;BME280;4921;43.214;27.936;2022-07-10T00:40:04;100229.53;;;24.00;57.72
9764;BME280;4921;43.214;27.936;2022-07-10T00:42:33;100234.94;;;23.94;57.95
9764;BME280;4921;43.214;27.936;2022-07-10T00:45:00;100241.56;;;23.98;58.02
9764;BME280;4921;43.214;27.936;2022-07-10T00:47:27;100240.31;;;23.94;57.97
9764;BME280;4921;43.214;27.936;2022-07-10T00:49:54;100232.31;;;23.87;58.40
9764;BME280;4921;43.214;27.936;2022-07-10T00:52:21;100222.28;;;23.76;59.15
9764;BME280;4921;43.214;27.936;2022-07-10T00:54:49;100235.31;;;23.73;59.56
9764;BME280;4921;43.214;27.936;2022-07-10T00:57:17;100226.88;;;23.69;59.51
9764;BME280;4921;43.214;27.936;2022-07-10T00:59:48;100218.81;;;23.69;59.31
9764;BME280;4921;43.214;27.936;2022-07-10T01:02:15;100221.88;;;23.73;58.63
9764;BME280;4921;43.214;27.936;2022-07-10T01:04:43;100225.00;;;23.70;58.46
9764;BME280;4921;43.214;27.936;2022-07-10T01:07:10;100221.28;;;23.71;58.61
9764;BME280;4921;43.214;27.936;2022-07-10T01:09:37;100230.44;;;23.63;58.45
9764;BME280;4921;43.214;27.936;2022-07-10T01:12:05;100226.53;;;23.59;58.58
9764;BME280;4921;43.214;27.936;2022-07-10T01:14:32;100226.25;;;23.67;59.24
9764;BME280;4921;43.214;27.936;2022-07-10T01:17:04;100233.88;;;23.70;59.63
9764;BME280;4921;43.214;27.936;2022-07-10T01:19:31;100227.25;;;23.73;59.89
9764;BME280;4921;43.214;27.936;2022-07-10T01:21:59;100227.09;;;23.68;60.50
9764;BME280;4921;43.214;27.936;2022-07-10T01:24:27;100222.09;;;23.71;60.80
9764;BME280;4921;43.214;27.936;2022-07-10T01:26:54;100225.16;;;23.75;60.79
9764;BME280;4921;43.214;27.936;2022-07-10T01:29:22;100210.94;;;23.74;60.93
9764;BME280;4921;43.214;27.936;2022-07-10T01:31:49;100209.50;;;23.72;60.67
9764;BME280;4921;43.214;27.936;2022-07-10T01:34:16;100205.22;;;23.64;61.14
9764;BME280;4921;43.214;27.936;2022-07-10T01:36:44;100212.78;;;23.74;61.68
9764;BME280;4921;43.214;27.936;2022-07-10T01:39:12;100216.69;;;23.78;61.96
9764;BME280;4921;43.214;27.936;2022-07-10T01:41:39;100208.25;;;23.74;62.56
9764;BME280;4921;43.214;27.936;2022-07-10T01:44:06;100218.50;;;23.84;62.74
9764;BME280;4921;43.214;27.936;2022-07-10T01:46:33;100219.16;;;23.79;63.19
9764;BME280;4921;43.214;27.936;2022-07-10T01:49:00;100218.53;;;23.77;63.22
9764;BME280;4921;43.214;27.936;2022-07-10T01:51:27;100218.38;;;23.72;63.56
9764;BME280;4921;43.214;27.936;2022-07-10T01:53:54;100211.63;;;23.63;64.39
9764;BME280;4921;43.214;27.936;2022-07-10T01:56:22;100199.47;;;23.61;64.88
9764;BME280;4921;43.214;27.936;2022-07-10T01:58:49;100194.50;;;23.58;65.45
9764;BME280;4921;43.214;27.936;2022-07-10T02:01:16;100198.91;;;23.52;65.98
9764;BME280;4921;43.214;27.936;2022-07-10T02:03:43;100211.28;;;23.46;66.04
9764;BME280;4921;43.214;27.936;2022-07-10T02:06:27;100216.53;;;23.35;66.35
9764;BME280;4921;43.214;27.936;2022-07-10T02:08:54;100224.97;;;23.32;66.93
9764;BME280;4921;43.214;27.936;2022-07-10T02:11:23;100221.91;;;23.35;66.54
9764;BME280;4921;43.214;27.936;2022-07-10T02:13:50;100230.56;;;23.37;66.61
9764;BME280;4921;43.214;27.936;2022-07-10T02:16:17;100239.22;;;23.32;66.44
9764;BME280;4921;43.214;27.936;2022-07-10T02:18:44;100232.41;;;23.30;67.23
9764;BME280;4921;43.214;27.936;2022-07-10T02:21:11;100238.19;;;23.27;67.49
9764;BME280;4921;43.214;27.936;2022-07-10T02:23:38;100237.00;;;23.23;67.59
9764;BME280;4921;43.214;27.936;2022-07-10T02:26:06;100240.69;;;23.35;67.79
9764;BME280;4921;43.214;27.936;2022-07-10T02:28:35;100246.47;;;23.25;66.53
9764;BME280;4921;43.214;27.936;2022-07-10T02:31:02;100254.53;;;23.25;67.08
9764;BME280;4921;43.214;27.936;2022-07-10T02:33:29;100268.78;;;23.26;66.37
9764;BME280;4921;43.214;27.936;2022-07-10T02:35:56;100284.84;;;23.32;66.43
9764;BME280;4921;43.214;27.936;2022-07-10T02:38:23;100291.47;;;23.30;66.34
9764;BME280;4921;43.214;27.936;2022-07-10T02:40:50;100299.13;;;23.33;66.35
9764;BME280;4921;43.214;27.936;2022-07-10T02:43:17;100314.59;;;23.37;65.72
9764;BME280;4921;43.214;27.936;2022-07-10T02:45:45;100315.59;;;23.43;65.57
9764;BME280;4921;43.214;27.936;2022-07-10T02:48:14;100318.47;;;23.48;65.59
9764;BME280;4921;43.214;27.936;2022-07-10T02:50:41;100322.38;;;23.52;65.08
9764;BME280;4921;43.214;27.936;2022-07-10T02:53:08;100316.56;;;23.55;63.91
9764;BME280;4921;43.214;27.936;2022-07-10T02:55:35;100317.41;;;23.56;63.75
9764;BME280;4921;43.214;27.936;2022-07-10T02:58:02;100316.16;;;23.58;63.01
9764;BME280;4921;43.214;27.936;2022-07-10T03:00:29;100323.19;;;23.59;62.88
9764;BME280;4921;43.214;27.936;2022-07-10T03:02:57;100313.88;;;23.55;62.60
9764;BME280;4921;43.214;27.936;2022-07-10T03:05:24;100314.50;;;23.57;63.07
9764;BME280;4921;43.214;27.936;2022-07-10T03:07:51;100310.19;;;23.56;62.10
9764;BME280;4921;43.214;27.936;2022-07-10T03:10:18;100310.41;;;23.55;62.49
9764;BME280;4921;43.214;27.936;2022-07-10T03:12:45;100313.88;;;23.55;62.52
9764;BME280;4921;43.214;27.936;2022-07-10T03:15:13;100303.38;;;23.54;61.68
9764;BME280;4921;43.214;27.936;2022-07-10T03:17:40;100309.59;;;23.47;61.54
9764;BME280;4921;43.214;27.936;2022-07-10T03:20:09;100305.88;;;23.48;61.33
9764;BME280;4921;43.214;27.936;2022-07-10T03:22:37;100307.13;;;23.46;60.69
9764;BME280;4921;43.214;27.936;2022-07-10T03:25:05;100298.25;;;23.45;60.86
9764;BME280;4921;43.214;27.936;2022-07-10T03:27:32;100296.63;;;23.38;61.05
9764;BME280;4921;43.214;27.936;2022-07-10T03:29:59;100295.59;;;23.32;61.07
9764;BME280;4921;43.214;27.936;2022-07-10T03:32:26;100294.38;;;23.28;61.28
9764;BME280;4921;43.214;27.936;2022-07-10T03:34:53;100301.97;;;23.31;61.47
9764;BME280;4921;43.214;27.936;2022-07-10T03:37:21;100308.00;;;23.33;61.66
9764;BME280;4921;43.214;27.936;2022-07-10T03:39:48;100305.31;;;23.33;61.95
9764;BME280;4921;43.214;27.936;2022-07-10T03:42:15;100307.56;;;23.36;61.70
9764;BME280;4921;43.214;27.936;2022-07-10T03:44:42;100307.19;;;23.33;61.52
9764;BME280;4921;43.214;27.936;2022-07-10T03:47:09;100305.09;;;23.28;62.19
9764;BME280;4921;43.214;27.936;2022-07-10T03:49:36;100312.72;;;23.31;62.43
9764;BME280;4921;43.214;27.936;2022-07-10T03:52:04;100311.50;;;23.34;62.28
9764;BME280;4921;43.214;27.936;2022-07-10T03:54:33;100312.13;;;23.36;62.44
9764;BME280;4921;43.214;27.936;2022-07-10T03:57:00;100323.69;;;23.36;62.09
9764;BME280;4921;43.214;27.936;2022-07-10T03:59:44;100313.56;;;23.38;62.34
9764;BME280;4921;43.214;27.936;2022-07-10T04:02:11;100309.22;;;23.44;62.18
9764;BME280;4921;43.214;27.936;2022-07-10T04:04:38;100310.84;;;23.45;61.90
9764;BME280;4921;43.214;27.936;2022-07-10T04:07:05;100298.91;;;23.34;62.19
9764;BME280;4921;43.214;27.936;2022-07-10T04:09:34;100309.22;;;23.44;62.10
9764;BME280;4921;43.214;27.936;2022-07-10T04:12:01;100300.75;;;23.40;61.76
9764;BME280;4921;43.214;27.936;2022-07-10T04:14:28;100315.59;;;23.43;61.12
9764;BME280;4921;43.214;27.936;2022-07-10T04:16:55;100310.47;;;23.35;60.07
9764;BME280;4921;43.214;27.936;2022-07-10T04:19:21;100308.63;;;23.35;59.98
9764;BME280;4921;43.214;27.936;2022-07-10T04:21:49;100302.19;;;23.30;60.03
9764;BME280;4921;43.214;27.936;2022-07-10T04:24:16;100309.88;;;23.33;60.01
9764;BME280;4921;43.214;27.936;2022-07-10T04:26:44;100311.50;;;23.34;59.91
9764;BME280;4921;43.214;27.936;2022-07-10T04:29:11;100306.13;;;23.34;60.70
9764;BME280;4921;43.214;27.936;2022-07-10T04:31:38;100314.38;;;23.39;61.03
9764;BME280;4921;43.214;27.936;2022-07-10T04:34:05;100312.50;;;23.46;60.94
9764;BME280;4921;43.214;27.936;2022-07-10T04:36:33;100313.13;;;23.48;59.60
9764;BME280;4921;43.214;27.936;2022-07-10T04:39:00;100304.63;;;23.51;58.22
9764;BME280;4921;43.214;27.936;2022-07-10T04:41:27;100305.03;;;23.55;58.44
9764;BME280;4921;43.214;27.936;2022-07-10T04:43:55;100322.75;;;23.62;56.88
9764;BME280;4921;43.214;27.936;2022-07-10T04:46:22;100314.06;;;23.67;57.17
9764;BME280;4921;43.214;27.936;2022-07-10T04:48:49;100314.84;;;23.74;57.65
9764;BME280;4921;43.214;27.936;2022-07-10T04:51:17;100308.63;;;23.80;56.35
9764;BME280;4921;43.214;27.936;2022-07-10T04:53:44;100304.72;;;23.76;55.10
9764;BME280;4921;43.214;27.936;2022-07-10T04:56:11;100321.97;;;23.93;53.87
9764;BME280;4921;43.214;27.936;2022-07-10T04:58:39;100332.69;;;23.99;53.87
9764;BME280;4921;43.214;27.936;2022-07-10T05:01:07;100323.13;;;24.03;54.63
9764;BME280;4921;43.214;27.936;2022-07-10T05:03:34;100324.78;;;24.11;55.21
9764;BME280;4921;43.214;27.936;2022-07-10T05:06:01;100334.22;;;24.20;56.46
9764;BME280;4921;43.214;27.936;2022-07-10T05:08:28;100339.34;;;24.28;56.59
9764;BME280;4921;43.214;27.936;2022-07-10T05:10:55;100332.91;;;24.29;50.92
9764;BME280;4921;43.214;27.936;2022-07-10T05:13:22;100336.00;;;24.33;51.92
9764;BME280;4921;43.214;27.936;2022-07-10T05:15:49;100333.47;;;24.38;53.11
9764;BME280;4921;43.214;27.936;2022-07-10T05:18:19;100344.84;;;24.40;54.03
9764;BME280;4921;43.214;27.936;2022-07-10T05:20:46;100343.53;;;24.49;54.28
9764;BME280;4921;43.214;27.936;2022-07-10T05:23:15;100339.97;;;24.55;52.43
9764;BME280;4921;43.214;27.936;2022-07-10T05:25:42;100349.03;;;24.60;52.41
9764;BME280;4921;43.214;27.936;2022-07-10T05:28:09;100338.66;;;24.64;53.51
9764;BME280;4921;43.214;27.936;2022-07-10T05:30:38;100338.41;;;24.65;51.97
9764;BME280;4921;43.214;27.936;2022-07-10T05:33:05;100341.47;;;24.75;52.04
9764;BME280;4921;43.214;27.936;2022-07-10T05:35:33;100352.63;;;24.79;52.28
9764;BME280;4921;43.214;27.936;2022-07-10T05:38:01;100351.59;;;24.80;51.67
9764;BME280;4921;43.214;27.936;2022-07-10T05:40:28;100353.16;;;24.87;50.07
9764;BME280;4921;43.214;27.936;2022-07-10T05:42:55;100362.44;;;24.91;50.00
9764;BME280;4921;43.214;27.936;2022-07-10T05:45:22;100359.06;;;24.96;50.46
9764;BME280;4921;43.214;27.936;2022-07-10T05:47:49;100358.41;;;25.01;51.63
9764;BME280;4921;43.214;27.936;2022-07-10T05:50:16;100357.59;;;25.00;50.67
9764;BME280;4921;43.214;27.936;2022-07-10T05:52:44;100358.94;;;25.09;50.46
9764;BME280;4921;43.214;27.936;2022-07-10T05:55:11;100355.38;;;25.15;52.27
9764;BME280;4921;43.214;27.936;2022-07-10T05:57:38;100350.75;;;25.22;49.77
9764;BME280;4921;43.214;27.936;2022-07-10T06:00:07;100344.91;;;25.25;50.13
9764;BME280;4921;43.214;27.936;2022-07-10T06:02:35;100340.25;;;25.32;49.99
9764;BME280;4921;43.214;27.936;2022-07-10T06:05:02;100341.91;;;25.33;51.34
9764;BME280;4921;43.214;27.936;2022-07-10T06:07:29;100345.81;;;25.37;51.80
9764;BME280;4921;43.214;27.936;2022-07-10T06:09:57;100348.06;;;25.40;51.14
9764;BME280;4921;43.214;27.936;2022-07-10T06:12:24;100338.50;;;25.44;50.87
9764;BME280;4921;43.214;27.936;2022-07-10T06:14:51;100334.56;;;25.47;51.30
9764;BME280;4921;43.214;27.936;2022-07-10T06:17:18;100334.44;;;25.53;50.21
9764;BME280;4921;43.214;27.936;2022-07-10T06:19:45;100343.34;;;25.54;50.38
9764;BME280;4921;43.214;27.936;2022-07-10T06:22:12;100334.84;;;25.57;50.17
9764;BME280;4921;43.214;27.936;2022-07-10T06:25:00;100346.03;;;25.54;50.37
9764;BME280;4921;43.214;27.936;2022-07-10T06:27:27;100353.53;;;25.52;49.37
9764;BME280;4921;43.214;27.936;2022-07-10T06:29:54;100346.50;;;25.51;49.79
9764;BME280;4921;43.214;27.936;2022-07-10T06:32:21;100345.91;;;25.49;49.92
9764;BME280;4921;43.214;27.936;2022-07-10T06:34:49;100352.69;;;25.51;51.53
9764;BME280;4921;43.214;27.936;2022-07-10T06:37:17;100356.00;;;25.53;49.66
9764;BME280;4921;43.214;27.936;2022-07-10T06:39:45;100350.84;;;25.52;49.54
9764;BME280;4921;43.214;27.936;2022-07-10T06:42:14;100347.09;;;25.53;48.72
9764;BME280;4921;43.214;27.936;2022-07-10T06:44:42;100354.94;;;25.54;49.48
9764;BME280;4921;43.214;27.936;2022-07-10T06:47:09;100334.91;;;25.50;49.18
9764;BME280;4921;43.214;27.936;2022-07-10T06:49:55;100342.69;;;25.58;49.10
9764;BME280;4921;43.214;27.936;2022-07-10T06:52:23;100342.84;;;25.63;47.26
9764;BME280;4921;43.214;27.936;2022-07-10T06:54:50;100350.09;;;25.63;48.00
9764;BME280;4921;43.214;27.936;2022-07-10T06:57:18;100349.25;;;25.62;47.92
9764;BME280;4921;43.214;27.936;2022-07-10T06:59:45;100347.97;;;25.65;49.64
9764;BME280;4921;43.214;27.936;2022-07-10T07:02:12;100339.47;;;25.68;48.39
9764;BME280;4921;43.214;27.936;2022-07-10T07:04:39;100336.44;;;25.76;47.88
9764;BME280;4921;43.214;27.936;2022-07-10T07:07:06;100345.47;;;25.82;49.49
9764;BME280;4921;43.214;27.936;2022-07-10T07:09:33;100341.06;;;25.87;48.74
9764;BME280;4921;43.214;27.936;2022-07-10T07:12:00;100341.19;;;25.92;47.36
9764;BME280;4921;43.214;27.936;2022-07-10T07:14:29;100337.00;;;25.96;47.54
9764;BME280;4921;43.214;27.936;2022-07-10T07:16:55;100331.88;;;26.06;49.09
9764;BME280;4921;43.214;27.936;2022-07-10T07:19:29;100345.06;;;26.14;47.00
9764;BME280;4921;43.214;27.936;2022-07-10T07:22:19;100330.75;;;26.14;46.40
9764;BME280;4921;43.214;27.936;2022-07-10T07:25:03;100328.53;;;26.22;46.21
9764;BME280;4921;43.214;27.936;2022-07-10T07:27:30;100340.75;;;26.25;47.24
9764;BME280;4921;43.214;27.936;2022-07-10T07:30:01;100340.06;;;26.29;47.11
9764;BME280;4921;43.214;27.936;2022-07-10T07:32:29;100319.84;;;26.20;47.04
9764;BME280;4921;43.214;27.936;2022-07-10T07:34:56;100340.78;;;26.36;46.40
9764;BME280;4921;43.214;27.936;2022-07-10T07:37:34;100339.59;;;26.44;45.78
9764;BME280;4921;43.214;27.936;2022-07-10T07:40:01;100342.78;;;26.53;46.97
9764;BME280;4921;43.214;27.936;2022-07-10T07:42:29;100337.78;;;26.56;45.38
9764;BME280;4921;43.214;27.936;2022-07-10T07:44:56;100343.31;;;26.61;43.64
9764;BME280;4921;43.214;27.936;2022-07-10T07:47:24;100341.19;;;26.63;44.25
9764;BME280;4921;43.214;27.936;2022-07-10T07:49:51;100330.41;;;26.63;43.65
9764;BME280;4921;43.214;27.936;2022-07-10T07:52:18;100338.13;;;26.71;44.45
9764;BME280;4921;43.214;27.936;2022-07-10T07:54:45;100334.28;;;26.79;45.65
9764;BME280;4921;43.214;27.936;2022-07-10T07:57:12;100346.03;;;26.84;44.63
9764;BME280;4921;43.214;27.936;2022-07-10T07:59:39;100348.25;;;26.87;44.44
9764;BME280;4921;43.214;27.936;2022-07-10T08:02:06;100344.38;;;26.83;44.25
9764;BME280;4921;43.214;27.936;2022-07-10T08:04:35;100322.78;;;26.83;44.11
9764;BME280;4921;43.214;27.936;2022-07-10T08:07:02;100338.03;;;26.89;43.44
9764;BME280;4921;43.214;27.936;2022-07-10T08:09:30;100327.84;;;26.91;44.53
9764;BME280;4921;43.214;27.936;2022-07-10T08:11:57;100333.59;;;26.95;45.47
9764;BME280;4921;43.214;27.936;2022-07-10T08:14:24;100348.72;;;26.96;44.53
9764;BME280;4921;43.214;27.936;2022-07-10T08:16:50;100339.13;;;27.00;44.60
9764;BME280;4921;43.214;27.936;2022-07-10T08:19:17;100340.88;;;27.06;45.30
9764;BME280;4921;43.214;27.936;2022-07-10T08:21:46;100336.16;;;27.13;45.80
9764;BME280;4921;43.214;27.936;2022-07-10T08:24:13;100335.69;;;27.16;44.57
9764;BME280;4921;43.214;27.936;2022-07-10T08:26:41;100334.50;;;27.24;44.36
9764;BME280;4921;43.214;27.936;2022-07-10T08:29:08;100337.31;;;27.29;45.17
9764;BME280;4921;43.214;27.936;2022-07-10T08:31:35;100344.69;;;27.33;44.97
9764;BME280;4921;43.214;27.936;2022-07-10T08:34:02;100337.78;;;27.37;45.19
9764;BME280;4921;43.214;27.936;2022-07-10T08:36:29;100350.84;;;27.40;44.07
9764;BME280;4921;43.214;27.936;2022-07-10T08:38:57;100346.72;;;27.38;43.41
9764;BME280;4921;43.214;27.936;2022-07-10T08:41:26;100342.00;;;27.45;44.57
9764;BME280;4921;43.214;27.936;2022-07-10T08:43:53;100334.81;;;27.50;45.26
9764;BME280;4921;43.214;27.936;2022-07-10T08:46:20;100343.72;;;27.62;44.75
9764;BME280;4921;43.214;27.936;2022-07-10T08:48:49;100350.19;;;27.61;43.36
9764;BME280;4921;43.214;27.936;2022-07-10T08:51:24;100349.28;;;27.56;42.89
9764;BME280;4921;43.214;27.936;2022-07-10T08:53:53;100349.94;;;27.63;41.97
9764;BME280;4921;43.214;27.936;2022-07-10T08:56:23;100350.66;;;27.58;42.10
9764;BME280;4921;43.214;27.936;2022-07-10T08:58:52;100348.78;;;27.59;42.77
9764;BME280;4921;43.214;27.936;2022-07-10T09:01:20;100346.19;;;27.64;43.61
9764;BME280;4921;43.214;27.936;2022-07-10T09:03:48;100341.03;;;27.62;44.07
9764;BME280;4921;43.214;27.936;2022-07-10T09:06:16;100338.41;;;27.67;45.00
9764;BME280;4921;43.214;27.936;2022-07-10T09:08:58;100340.25;;;27.78;46.48
9764;BME280;4921;43.214;27.936;2022-07-10T09:11:27;100341.25;;;27.89;44.81
9764;BME280;4921;43.214;27.936;2022-07-10T09:13:57;100340.78;;;27.92;43.58
9764;BME280;4921;43.214;27.936;2022-07-10T09:16:26;100341.72;;;27.98;41.38
9764;BME280;4921;43.214;27.936;2022-07-10T09:18:54;100341.00;;;28.02;41.35
9764;BME280;4921;43.214;27.936;2022-07-10T09:21:21;100335.34;;;28.04;40.85
9764;BME280;4921;43.214;27.936;2022-07-10T09:23:49;100343.09;;;28.12;41.00
9764;BME280;4921;43.214;27.936;2022-07-10T09:26:16;100333.91;;;28.13;41.80
9764;BME280;4921;43.214;27.936;2022-07-10T09:28:45;100336.06;;;28.27;41.28
9764;BME280;4921;43.214;27.936;2022-07-10T09:31:13;100325.31;;;28.32;41.31
9764;BME280;4921;43.214;27.936;2022-07-10T09:33:40;100327.38;;;28.42;42.56
9764;BME280;4921;43.214;27.936;2022-07-10T09:36:08;100322.69;;;28.54;41.86
9764;BME280;4921;43.214;27.936;2022-07-10T09:38:49;100334.31;;;28.66;40.71
9764;BME280;4921;43.214;27.936;2022-07-10T09:41:18;100317.38;;;28.76;39.02
9764;BME280;4921;43.214;27.936;2022-07-10T09:43:49;100315.72;;;28.91;37.92
9764;BME280;4921;43.214;27.936;2022-07-10T09:46:18;100319.53;;;29.12;39.60
9764;BME280;4921;43.214;27.936;2022-07-10T09:48:47;100296.31;;;29.16;37.77
9764;BME280;4921;43.214;27.936;2022-07-10T09:51:14;100303.31;;;29.33;37.45
9764;BME280;4921;43.214;27.936;2022-07-10T09:53:42;100303.69;;;29.42;38.06
9764;BME280;4921;43.214;27.936;2022-07-10T09:56:11;100311.13;;;29.52;37.96
9764;BME280;4921;43.214;27.936;2022-07-10T09:58:38;100309.28;;;29.57;38.83
9764;BME280;4921;43.214;27.936;2022-07-10T10:01:08;100298.88;;;29.71;39.61
9764;BME280;4921;43.214;27.936;2022-07-10T10:03:36;100303.56;;;29.75;39.11
9764;BME280;4921;43.214;27.936;2022-07-10T10:06:09;100305.53;;;29.80;38.82
9764;BME280;4921;43.214;27.936;2022-07-10T10:08:44;100303.19;;;29.93;37.83
9764;BME280;4921;43.214;27.936;2022-07-10T10:11:15;100298.72;;;30.04;36.65
9764;BME280;4921;43.214;27.936;2022-07-10T10:13:46;100306.13;;;30.13;35.67
9764;BME280;4921;43.214;27.936;2022-07-10T10:16:15;100303.66;;;30.12;35.92
9764;BME280;4921;43.214;27.936;2022-07-10T10:18:42;100309.38;;;30.10;36.12
9764;BME280;4921;43.214;27.936;2022-07-10T10:21:25;100305.34;;;30.18;34.94
9764;BME280;4921;43.214;27.936;2022-07-10T10:23:54;100308.63;;;30.20;34.20
9764;BME280;4921;43.214;27.936;2022-07-10T10:26:22;100305.13;;;30.25;34.02
9764;BME280;4921;43.214;27.936;2022-07-10T10:28:51;100306.91;;;30.36;34.41
9764;BME280;4921;43.214;27.936;2022-07-10T10:31:20;100295.28;;;30.45;34.00
9764;BME280;4921;43.214;27.936;2022-07-10T10:33:47;100309.69;;;30.46;33.48
9764;BME280;4921;43.214;27.936;2022-07-10T10:36:46;100298.59;;;30.52;33.07
9764;BME280;4921;43.214;27.936;2022-07-10T10:39:15;100305.06;;;30.46;33.61
9764;BME280;4921;43.214;27.936;2022-07-10T10:41:47;100300.50;;;30.52;33.36
9764;BME280;4921;43.214;27.936;2022-07-10T10:44:25;100288.06;;;30.61;33.79
9764;BME280;4921;43.214;27.936;2022-07-10T10:46:57;100295.44;;;30.65;34.67
9764;BME280;4921;43.214;27.936;2022-07-10T10:49:46;100289.28;;;30.75;34.47
9764;BME280;4921;43.214;27.936;2022-07-10T10:52:15;100294.69;;;30.75;34.38
9764;BME280;4921;43.214;27.936;2022-07-10T10:55:06;100292.63;;;30.87;34.41
9764;BME280;4921;43.214;27.936;2022-07-10T10:57:39;100283.72;;;31.02;34.23
9764;BME280;4921;43.214;27.936;2022-07-10T11:00:33;100289.44;;;31.00;34.35
9764;BME280;4921;43.214;27.936;2022-07-10T11:03:22;100280.47;;;31.00;34.63
9764;BME280;4921;43.214;27.936;2022-07-10T11:05:50;100294.91;;;31.05;35.38
9764;BME280;4921;43.214;27.936;2022-07-10T11:08:38;100285.38;;;31.08;33.62
9764;BME280;4921;43.214;27.936;2022-07-10T11:11:38;100283.81;;;31.17;34.39
9764;BME280;4921;43.214;27.936;2022-07-10T11:14:09;100281.16;;;31.27;33.76
9764;BME280;4921;43.214;27.936;2022-07-10T11:16:46;100286.00;;;31.20;32.82
9764;BME280;4921;43.214;27.936;2022-07-10T11:19:21;100281.31;;;31.10;32.32
9764;BME280;4921;43.214;27.936;2022-07-10T11:24:42;100284.34;;;31.19;32.59
9764;BME280;4921;43.214;27.936;2022-07-10T11:27:27;100285.22;;;31.29;32.90
9764;BME280;4921;43.214;27.936;2022-07-10T11:29:59;100264.84;;;31.27;32.95
9764;BME280;4921;43.214;27.936;2022-07-10T11:32:26;100272.19;;;31.31;31.92
9764;BME280;4921;43.214;27.936;2022-07-10T11:34:55;100281.69;;;31.29;30.39
9764;BME280;4921;43.214;27.936;2022-07-10T11:37:22;100280.31;;;31.26;30.30
9764;BME280;4921;43.214;27.936;2022-07-10T11:40:07;100273.81;;;31.32;31.58
9764;BME280;4921;43.214;27.936;2022-07-10T11:42:48;100276.25;;;31.34;30.73
9764;BME280;4921;43.214;27.936;2022-07-10T11:45:37;100279.00;;;31.39;31.08
9764;BME280;4921;43.214;27.936;2022-07-10T11:48:04;100277.84;;;31.20;31.17
9764;BME280;4921;43.214;27.936;2022-07-10T11:50:36;100270.72;;;31.09;31.21
9764;BME280;4921;43.214;27.936;2022-07-10T11:53:04;100288.72;;;31.20;32.33
9764;BME280;4921;43.214;27.936;2022-07-10T11:55:32;100281.41;;;31.20;32.33
9764;BME280;4921;43.214;27.936;2022-07-10T11:58:15;100276.75;;;31.16;32.77
9764;BME280;4921;43.214;27.936;2022-07-10T12:00:43;100276.25;;;31.24;31.01
9764;BME280;4921;43.214;27.936;2022-07-10T12:03:18;100277.38;;;31.33;31.14
9764;BME280;4921;43.214;27.936;2022-07-10T12:05:47;100274.91;;;31.36;30.69
9764;BME280;4921;43.214;27.936;2022-07-10T12:08:16;100272.69;;;31.23;31.44
9764;BME280;4921;43.214;27.936;2022-07-10T12:10:43;100270.03;;;31.33;31.13
9764;BME280;4921;43.214;27.936;2022-07-10T12:13:12;100279.28;;;31.37;29.82
9764;BME280;4921;43.214;27.936;2022-07-10T12:15:41;100281.69;;;31.29;30.51
9764;BME280;4921;43.214;27.936;2022-07-10T12:18:14;100267.53;;;31.22;30.59
9764;BME280;4921;43.214;27.936;2022-07-10T12:20:42;100272.19;;;31.36;29.02
9764;BME280;4921;43.214;27.936;2022-07-10T12:23:12;100274.66;;;31.33;28.84
9764;BME280;4921;43.214;27.936;2022-07-10T12:25:42;100277.56;;;31.21;29.60
9764;BME280;4921;43.214;27.936;2022-07-10T12:28:09;100280.28;;;31.21;28.68
9764;BME280;4921;43.214;27.936;2022-07-10T12:30:39;100272.38;;;31.15;28.23
9764;BME280;4921;43.214;27.936;2022-07-10T12:33:11;100275.03;;;31.00;31.01
9764;BME280;4921;43.214;27.936;2022-07-10T12:35:49;100265.00;;;31.00;30.20
9764;BME280;4921;43.214;27.936;2022-07-10T12:38:22;100268.81;;;31.04;30.61
9764;BME280;4921;43.214;27.936;2022-07-10T12:43:35;100263.59;;;30.93;30.89
9764;BME280;4921;43.214;27.936;2022-07-10T12:46:10;100270.38;;;30.90;31.78
9764;BME280;4921;43.214;27.936;2022-07-10T12:48:37;100267.09;;;30.88;30.27
9764;BME280;4921;43.214;27.936;2022-07-10T12:51:25;100240.31;;;30.65;30.47
9764;BME280;4921;43.214;27.936;2022-07-10T12:53:53;100265.63;;;30.70;31.40
9764;BME280;4921;43.214;27.936;2022-07-10T12:56:31;100263.63;;;30.61;31.22
9764;BME280;4921;43.214;27.936;2022-07-10T12:58:58;100267.13;;;30.56;31.96
9764;BME280;4921;43.214;27.936;2022-07-10T13:01:26;100264.72;;;30.60;31.95
9764;BME280;4921;43.214;27.936;2022-07-10T13:03:58;100273.91;;;30.54;32.00
9764;BME280;4921;43.214;27.936;2022-07-10T13:06:26;100267.34;;;30.50;32.16
9764;BME280;4921;43.214;27.936;2022-07-10T13:08:55;100258.66;;;30.48;32.18
9764;BME280;4921;43.214;27.936;2022-07-10T13:11:23;100261.13;;;30.49;31.88
9764;BME280;4921;43.214;27.936;2022-07-10T13:13:50;100256.03;;;30.58;31.96
9764;BME280;4921;43.214;27.936;2022-07-10T13:16:17;100247.84;;;30.53;31.45